Terminal Aerodrome Forecast
Issued by NWS

Home | Current Version | Previous Version | Text Only | Print | Product List | Glossary On
Versions: 1 2 3 4 5 6 7 8 9 10 11 12 13 14 15 16 17 18 19 20 21 22
000
FTUS43 KSGF 301120
TAFJLN
TAF
KJLN 301120Z 3012/3112 22013G20KT P6SM OVC020
     FM301400 24011KT P6SM VCSH OVC010
      TEMPO 3016/3020 5SM -SHRA BR OVC008
     FM302200 27010KT P6SM OVC010
     FM310600 32006KT P6SM BKN010=

USA.gov is the U.S. government's official web portal to all federal, state and local government web resources and services.